sensor_id;sensor_type;location;lat;lon;timestamp;pressure;altitude;pressure_sealevel;temperature;humidity
75681;BME280;64294;49.176;16.626;2023-08-17T00:02:11;99518.00;;;21.59;100.00
75681;BME280;64294;49.176;16.626;2023-08-17T00:04:37;99518.28;;;21.63;100.00
75681;BME280;64294;49.176;16.626;2023-08-17T00:07:03;99516.53;;;21.49;100.00
75681;BME280;64294;49.176;16.626;2023-08-17T00:09:29;99517.91;;;21.48;100.00
75681;BME280;64294;49.176;16.626;2023-08-17T00:11:54;99524.50;;;21.50;100.00
75681;BME280;64294;49.176;16.626;2023-08-17T00:14:20;99528.78;;;21.39;100.00
75681;BME280;64294;49.176;16.626;2023-08-17T00:16:45;99534.66;;;21.41;100.00
75681;BME280;64294;49.176;16.626;2023-08-17T00:19:11;99544.00;;;21.32;100.00
75681;BME280;64294;49.176;16.626;2023-08-17T00:21:37;99538.16;;;21.30;100.00
75681;BME280;64294;49.176;16.626;2023-08-17T00:24:03;99543.72;;;21.18;100.00
75681;BME280;64294;49.176;16.626;2023-08-17T00:26:29;99550.19;;;21.19;100.00
75681;BME280;64294;49.176;16.626;2023-08-17T00:28:54;99547.63;;;21.23;100.00
75681;BME280;64294;49.176;16.626;2023-08-17T00:31:20;99549.38;;;21.38;100.00
75681;BME280;64294;49.176;16.626;2023-08-17T00:33:45;99552.63;;;21.54;100.00
75681;BME280;64294;49.176;16.626;2023-08-17T00:36:11;99547.00;;;21.34;100.00
75681;BME280;64294;49.176;16.626;2023-08-17T00:38:36;99550.81;;;21.27;100.00
75681;BME280;64294;49.176;16.626;2023-08-17T00:41:02;99544.31;;;21.17;100.00
75681;BME280;64294;49.176;16.626;2023-08-17T00:43:27;99541.94;;;21.13;100.00
75681;BME280;64294;49.176;16.626;2023-08-17T00:45:53;99544.09;;;21.03;100.00
75681;BME280;64294;49.176;16.626;2023-08-17T00:48:24;99548.03;;;20.89;100.00
75681;BME280;64294;49.176;16.626;2023-08-17T00:50:50;99541.09;;;20.82;100.00
75681;BME280;64294;49.176;16.626;2023-08-17T00:53:18;99540.81;;;20.78;100.00
75681;BME280;64294;49.176;16.626;2023-08-17T00:55:44;99551.34;;;20.75;100.00
75681;BME280;64294;49.176;16.626;2023-08-17T00:58:10;99560.34;;;20.81;100.00
75681;BME280;64294;49.176;16.626;2023-08-17T01:00:35;99551.78;;;20.81;100.00
75681;BME280;64294;49.176;16.626;2023-08-17T01:03:01;99552.09;;;20.76;100.00
75681;BME280;64294;49.176;16.626;2023-08-17T01:05:26;99552.72;;;20.74;100.00
75681;BME280;64294;49.176;16.626;2023-08-17T01:07:52;99552.28;;;20.68;100.00
75681;BME280;64294;49.176;16.626;2023-08-17T01:10:17;99550.59;;;20.75;100.00
75681;BME280;64294;49.176;16.626;2023-08-17T01:13:09;99555.88;;;20.69;100.00
75681;BME280;64294;49.176;16.626;2023-08-17T01:15:38;99547.59;;;20.73;100.00
75681;BME280;64294;49.176;16.626;2023-08-17T01:18:21;99547.59;;;20.73;100.00
75681;BME280;64294;49.176;16.626;2023-08-17T01:20:49;99540.25;;;20.70;100.00
75681;BME280;64294;49.176;16.626;2023-08-17T01:23:14;99538.28;;;20.63;100.00
75681;BME280;64294;49.176;16.626;2023-08-17T01:25:40;99541.75;;;20.61;100.00
75681;BME280;64294;49.176;16.626;2023-08-17T01:28:06;99544.94;;;20.65;100.00
75681;BME280;64294;49.176;16.626;2023-08-17T01:30:41;99560.09;;;20.58;100.00
75681;BME280;64294;49.176;16.626;2023-08-17T01:33:09;99558.00;;;20.59;100.00
75681;BME280;64294;49.176;16.626;2023-08-17T01:35:47;99563.69;;;20.59;100.00
75681;BME280;64294;49.176;16.626;2023-08-17T01:38:18;99560.38;;;20.62;100.00
75681;BME280;64294;49.176;16.626;2023-08-17T01:40:47;99549.84;;;20.74;100.00
75681;BME280;64294;49.176;16.626;2023-08-17T01:43:16;99554.25;;;20.66;100.00
75681;BME280;64294;49.176;16.626;2023-08-17T01:45:42;99551.66;;;20.60;100.00
75681;BME280;64294;49.176;16.626;2023-08-17T01:48:07;99541.75;;;20.61;100.00
75681;BME280;64294;49.176;16.626;2023-08-17T01:50:33;99542.97;;;20.58;100.00
75681;BME280;64294;49.176;16.626;2023-08-17T01:52:58;99550.91;;;20.60;100.00
75681;BME280;64294;49.176;16.626;2023-08-17T01:55:24;99560.72;;;20.47;100.00
75681;BME280;64294;49.176;16.626;2023-08-17T01:57:49;99558.16;;;20.41;100.00
75681;BME280;64294;49.176;16.626;2023-08-17T02:00:15;99545.53;;;20.44;100.00
75681;BME280;64294;49.176;16.626;2023-08-17T02:02:41;99542.50;;;20.42;100.00
75681;BME280;64294;49.176;16.626;2023-08-17T02:05:10;99540.13;;;20.48;100.00
75681;BME280;64294;49.176;16.626;2023-08-17T02:07:35;99536.66;;;20.50;100.00
75681;BME280;64294;49.176;16.626;2023-08-17T02:10:01;99545.53;;;20.54;100.00
75681;BME280;64294;49.176;16.626;2023-08-17T02:12:27;99541.31;;;20.55;100.00
75681;BME280;64294;49.176;16.626;2023-08-17T02:14:52;99539.81;;;20.54;100.00
75681;BME280;64294;49.176;16.626;2023-08-17T02:17:18;99543.72;;;20.49;100.00
75681;BME280;64294;49.176;16.626;2023-08-17T02:19:44;99546.88;;;20.53;100.00
75681;BME280;64294;49.176;16.626;2023-08-17T02:22:10;99547.16;;;20.38;100.00
75681;BME280;64294;49.176;16.626;2023-08-17T02:24:36;99546.25;;;20.35;100.00
75681;BME280;64294;49.176;16.626;2023-08-17T02:27:01;99539.50;;;20.40;100.00
75681;BME280;64294;49.176;16.626;2023-08-17T02:29:27;99534.22;;;20.37;100.00
75681;BME280;64294;49.176;16.626;2023-08-17T02:31:52;99536.50;;;20.38;100.00
75681;BME280;64294;49.176;16.626;2023-08-17T02:34:18;99546.59;;;20.49;100.00
75681;BME280;64294;49.176;16.626;2023-08-17T02:36:43;99535.91;;;20.49;100.00
75681;BME280;64294;49.176;16.626;2023-08-17T02:39:09;99537.28;;;20.48;100.00
75681;BME280;64294;49.176;16.626;2023-08-17T02:41:34;99532.59;;;20.43;100.00
75681;BME280;64294;49.176;16.626;2023-08-17T02:44:01;99532.47;;;20.51;100.00
75681;BME280;64294;49.176;16.626;2023-08-17T02:46:26;99534.09;;;20.54;100.00
75681;BME280;64294;49.176;16.626;2023-08-17T02:48:52;99527.81;;;20.46;100.00
75681;BME280;64294;49.176;16.626;2023-08-17T02:51:18;99529.59;;;20.51;100.00
75681;BME280;64294;49.176;16.626;2023-08-17T02:53:43;99524.63;;;20.42;100.00
75681;BME280;64294;49.176;16.626;2023-08-17T02:56:09;99516.41;;;20.46;100.00
75681;BME280;64294;49.176;16.626;2023-08-17T02:58:41;99521.59;;;20.40;100.00
75681;BME280;64294;49.176;16.626;2023-08-17T03:01:09;99529.91;;;20.45;100.00
75681;BME280;64294;49.176;16.626;2023-08-17T03:03:35;99534.56;;;20.41;100.00
75681;BME280;64294;49.176;16.626;2023-08-17T03:06:03;99511.72;;;20.41;100.00
75681;BME280;64294;49.176;16.626;2023-08-17T03:08:29;99524.97;;;20.46;100.00
75681;BME280;64294;49.176;16.626;2023-08-17T03:10:54;99519.06;;;20.44;100.00
75681;BME280;64294;49.176;16.626;2023-08-17T03:13:20;99524.78;;;20.53;100.00
75681;BME280;64294;49.176;16.626;2023-08-17T03:15:45;99524.97;;;20.46;100.00
75681;BME280;64294;49.176;16.626;2023-08-17T03:18:13;99522.81;;;20.56;100.00
75681;BME280;64294;49.176;16.626;2023-08-17T03:20:39;99520.56;;;20.54;100.00
75681;BME280;64294;49.176;16.626;2023-08-17T03:23:04;99522.81;;;20.56;100.00
75681;BME280;64294;49.176;16.626;2023-08-17T03:25:33;99519.22;;;20.55;100.00
75681;BME280;64294;49.176;16.626;2023-08-17T03:28:02;99525.25;;;20.50;100.00
75681;BME280;64294;49.176;16.626;2023-08-17T03:30:27;99526.88;;;20.43;100.00
75681;BME280;64294;49.176;16.626;2023-08-17T03:32:56;99527.97;;;20.48;100.00
75681;BME280;64294;49.176;16.626;2023-08-17T03:35:22;99533.19;;;20.42;100.00
75681;BME280;64294;49.176;16.626;2023-08-17T03:37:47;99546.13;;;20.43;100.00
75681;BME280;64294;49.176;16.626;2023-08-17T03:40:13;99535.13;;;20.39;100.00
75681;BME280;64294;49.176;16.626;2023-08-17T03:42:38;99543.28;;;20.43;100.00
75681;BME280;64294;49.176;16.626;2023-08-17T03:45:04;99536.06;;;20.42;100.00
75681;BME280;64294;49.176;16.626;2023-08-17T03:47:30;99534.41;;;20.48;100.00
75681;BME280;64294;49.176;16.626;2023-08-17T03:49:56;99530.97;;;20.50;100.00
75681;BME280;64294;49.176;16.626;2023-08-17T03:52:22;99536.97;;;20.54;100.00
75681;BME280;64294;49.176;16.626;2023-08-17T03:54:47;99537.56;;;20.52;100.00
75681;BME280;64294;49.176;16.626;2023-08-17T03:57:13;99539.06;;;20.53;100.00
75681;BME280;64294;49.176;16.626;2023-08-17T03:59:38;99541.31;;;20.55;100.00
75681;BME280;64294;49.176;16.626;2023-08-17T04:02:04;99541.75;;;20.61;100.00
75681;BME280;64294;49.176;16.626;2023-08-17T04:04:29;99540.09;;;20.68;100.00
75681;BME280;64294;49.176;16.626;2023-08-17T04:06:54;99542.97;;;20.58;100.00
75681;BME280;64294;49.176;16.626;2023-08-17T04:09:20;99540.84;;;20.68;100.00
75681;BME280;64294;49.176;16.626;2023-08-17T04:11:45;99539.34;;;20.67;100.00
75681;BME280;64294;49.176;16.626;2023-08-17T04:14:11;99540.72;;;20.66;100.00
75681;BME280;64294;49.176;16.626;2023-08-17T04:16:37;99543.41;;;20.64;100.00
75681;BME280;64294;49.176;16.626;2023-08-17T04:19:03;99546.44;;;20.66;100.00
75681;BME280;64294;49.176;16.626;2023-08-17T04:21:28;99547.94;;;20.67;100.00
75681;BME280;64294;49.176;16.626;2023-08-17T04:23:54;99556.50;;;20.67;100.00
75681;BME280;64294;49.176;16.626;2023-08-17T04:26:20;99556.16;;;20.73;100.00
75681;BME280;64294;49.176;16.626;2023-08-17T04:28:46;99558.41;;;20.84;100.00
75681;BME280;64294;49.176;16.626;2023-08-17T04:31:11;99561.56;;;20.88;100.00
75681;BME280;64294;49.176;16.626;2023-08-17T04:33:37;99553.75;;;20.89;100.00
75681;BME280;64294;49.176;16.626;2023-08-17T04:36:02;99556.47;;;20.86;100.00
75681;BME280;64294;49.176;16.626;2023-08-17T04:38:27;99565.91;;;20.89;100.00
75681;BME280;64294;49.176;16.626;2023-08-17T04:40:53;99569.06;;;20.93;100.00
75681;BME280;64294;49.176;16.626;2023-08-17T04:43:18;99581.38;;;20.96;100.00
75681;BME280;64294;49.176;16.626;2023-08-17T04:45:44;99580.16;;;20.99;100.00
75681;BME280;64294;49.176;16.626;2023-08-17T04:48:13;99583.16;;;21.01;100.00
75681;BME280;64294;49.176;16.626;2023-08-17T04:50:38;99583.50;;;21.05;100.00
75681;BME280;64294;49.176;16.626;2023-08-17T04:53:04;99587.69;;;21.04;100.00
75681;BME280;64294;49.176;16.626;2023-08-17T04:55:29;99601.19;;;21.13;100.00
75681;BME280;64294;49.176;16.626;2023-08-17T04:57:55;99600.75;;;21.16;100.00
75681;BME280;64294;49.176;16.626;2023-08-17T05:00:20;99597.75;;;21.24;100.00
75681;BME280;64294;49.176;16.626;2023-08-17T05:02:50;99600.16;;;21.28;100.00
75681;BME280;64294;49.176;16.626;2023-08-17T05:05:16;99593.81;;;21.29;100.00
75681;BME280;64294;49.176;16.626;2023-08-17T05:07:42;99599.97;;;21.35;100.00
75681;BME280;64294;49.176;16.626;2023-08-17T05:10:07;99597.69;;;21.43;100.00
75681;BME280;64294;49.176;16.626;2023-08-17T05:12:33;99600.22;;;21.49;100.00
75681;BME280;64294;49.176;16.626;2023-08-17T05:14:58;99596.13;;;21.52;100.00
75681;BME280;64294;49.176;16.626;2023-08-17T05:17:24;99599.13;;;21.54;100.00
75681;BME280;64294;49.176;16.626;2023-08-17T05:19:49;99596.72;;;21.60;100.00
75681;BME280;64294;49.176;16.626;2023-08-17T05:22:15;99600.00;;;21.66;100.00
75681;BME280;64294;49.176;16.626;2023-08-17T05:24:40;99590.63;;;21.75;100.00
75681;BME280;64294;49.176;16.626;2023-08-17T05:27:06;99589.41;;;21.79;100.00
75681;BME280;64294;49.176;16.626;2023-08-17T05:29:31;99591.38;;;21.76;100.00
75681;BME280;64294;49.176;16.626;2023-08-17T05:31:59;99591.19;;;21.84;100.00
75681;BME280;64294;49.176;16.626;2023-08-17T05:34:25;99593.09;;;21.91;100.00
75681;BME280;64294;49.176;16.626;2023-08-17T05:36:50;99581.72;;;22.02;100.00
75681;BME280;64294;49.176;16.626;2023-08-17T05:39:16;99584.28;;;22.08;100.00
75681;BME280;64294;49.176;16.626;2023-08-17T05:41:41;99577.59;;;22.36;100.00
75681;BME280;64294;49.176;16.626;2023-08-17T05:44:06;99580.13;;;22.42;99.14
75681;BME280;64294;49.176;16.626;2023-08-17T05:46:33;99584.75;;;22.47;98.20
75681;BME280;64294;49.176;16.626;2023-08-17T05:48:59;99590.78;;;22.84;96.08
75681;BME280;64294;49.176;16.626;2023-08-17T05:51:25;99593.81;;;22.98;93.68
75681;BME280;64294;49.176;16.626;2023-08-17T05:53:50;99586.09;;;23.01;92.54
75681;BME280;64294;49.176;16.626;2023-08-17T05:56:16;99581.84;;;23.02;93.37
75681;BME280;64294;49.176;16.626;2023-08-17T05:58:44;99593.09;;;23.09;92.41
75681;BME280;64294;49.176;16.626;2023-08-17T06:01:10;99588.38;;;23.14;91.54
75681;BME280;64294;49.176;16.626;2023-08-17T06:03:38;99595.28;;;23.44;89.39
75681;BME280;64294;49.176;16.626;2023-08-17T06:06:04;99582.31;;;23.43;88.65
75681;BME280;64294;49.176;16.626;2023-08-17T06:08:33;99588.44;;;23.49;88.10
75681;BME280;64294;49.176;16.626;2023-08-17T06:10:59;99595.28;;;23.44;88.77
75681;BME280;64294;49.176;16.626;2023-08-17T06:13:24;99589.69;;;23.46;88.23
75681;BME280;64294;49.176;16.626;2023-08-17T06:15:50;99590.19;;;23.77;88.12
75681;BME280;64294;49.176;16.626;2023-08-17T06:18:15;99592.56;;;23.93;86.24
75681;BME280;64294;49.176;16.626;2023-08-17T06:20:41;99593.13;;;24.14;85.87
75681;BME280;64294;49.176;16.626;2023-08-17T06:23:07;99586.38;;;24.33;83.80
75681;BME280;64294;49.176;16.626;2023-08-17T06:25:32;99593.31;;;24.54;82.75
75681;BME280;64294;49.176;16.626;2023-08-17T06:27:57;99595.59;;;24.55;82.28
75681;BME280;64294;49.176;16.626;2023-08-17T06:30:23;99597.34;;;24.49;83.16
75681;BME280;64294;49.176;16.626;2023-08-17T06:32:50;99601.06;;;24.51;82.95
75681;BME280;64294;49.176;16.626;2023-08-17T06:35:16;99596.19;;;24.54;81.92
75681;BME280;64294;49.176;16.626;2023-08-17T06:37:41;99595.00;;;24.33;82.75
75681;BME280;64294;49.176;16.626;2023-08-17T06:40:07;99598.38;;;24.30;83.83
75681;BME280;64294;49.176;16.626;2023-08-17T06:42:34;99599.78;;;24.66;80.97
75681;BME280;64294;49.176;16.626;2023-08-17T06:44:59;99607.66;;;24.65;81.10
75681;BME280;64294;49.176;16.626;2023-08-17T06:47:25;99609.06;;;24.53;82.26
75681;BME280;64294;49.176;16.626;2023-08-17T06:49:50;99611.50;;;24.21;84.19
75681;BME280;64294;49.176;16.626;2023-08-17T06:52:16;99602.13;;;24.32;82.65
75681;BME280;64294;49.176;16.626;2023-08-17T06:54:41;99609.00;;;24.39;82.04
75681;BME280;64294;49.176;16.626;2023-08-17T06:57:07;99607.38;;;24.36;82.01
75681;BME280;64294;49.176;16.626;2023-08-17T06:59:32;99603.88;;;24.37;82.91
75681;BME280;64294;49.176;16.626;2023-08-17T07:02:01;99613.88;;;24.36;83.74
75681;BME280;64294;49.176;16.626;2023-08-17T07:04:26;99614.44;;;24.58;82.55
75681;BME280;64294;49.176;16.626;2023-08-17T07:06:52;99619.53;;;24.60;84.93
75681;BME280;64294;49.176;16.626;2023-08-17T07:09:17;99607.81;;;24.56;83.70
75681;BME280;64294;49.176;16.626;2023-08-17T07:11:43;99611.00;;;24.73;81.42
75681;BME280;64294;49.176;16.626;2023-08-17T07:14:09;99610.88;;;25.48;77.72
75681;BME280;64294;49.176;16.626;2023-08-17T07:16:34;99619.88;;;25.95;72.55
75681;BME280;64294;49.176;16.626;2023-08-17T07:19:00;99620.44;;;26.05;75.28
75681;BME280;64294;49.176;16.626;2023-08-17T07:21:28;99620.84;;;26.41;73.79
75681;BME280;64294;49.176;16.626;2023-08-17T07:23:54;99626.06;;;26.88;70.35
75681;BME280;64294;49.176;16.626;2023-08-17T07:26:20;99620.63;;;27.39;69.54
75681;BME280;64294;49.176;16.626;2023-08-17T07:28:46;99620.19;;;27.76;66.04
75681;BME280;64294;49.176;16.626;2023-08-17T07:31:11;99622.59;;;27.66;66.20
75681;BME280;64294;49.176;16.626;2023-08-17T07:33:37;99618.69;;;27.59;66.13
75681;BME280;64294;49.176;16.626;2023-08-17T07:36:02;99618.97;;;27.81;66.44
75681;BME280;64294;49.176;16.626;2023-08-17T07:38:29;99617.22;;;28.39;63.50
75681;BME280;64294;49.176;16.626;2023-08-17T07:40:55;99626.63;;;28.24;64.62
75681;BME280;64294;49.176;16.626;2023-08-17T07:43:23;99617.31;;;27.76;64.21
75681;BME280;64294;49.176;16.626;2023-08-17T07:45:56;99618.78;;;27.93;63.54
75681;BME280;64294;49.176;16.626;2023-08-17T07:48:22;99621.31;;;27.69;65.00
75681;BME280;64294;49.176;16.626;2023-08-17T07:50:51;99620.63;;;27.39;66.86
75681;BME280;64294;49.176;16.626;2023-08-17T07:53:18;99623.34;;;27.66;66.10
75681;BME280;64294;49.176;16.626;2023-08-17T07:55:43;99623.22;;;27.49;67.37
75681;BME280;64294;49.176;16.626;2023-08-17T07:58:09;99625.34;;;27.32;68.56
75681;BME280;64294;49.176;16.626;2023-08-17T08:00:34;99629.16;;;27.21;68.15
75681;BME280;64294;49.176;16.626;2023-08-17T08:03:00;99627.06;;;27.08;67.42
75681;BME280;64294;49.176;16.626;2023-08-17T08:05:25;99630.41;;;27.02;66.22
75681;BME280;64294;49.176;16.626;2023-08-17T08:07:51;99623.19;;;27.17;66.58
75681;BME280;64294;49.176;16.626;2023-08-17T08:10:16;99618.47;;;27.39;65.73
75681;BME280;64294;49.176;16.626;2023-08-17T08:12:42;99619.41;;;26.99;67.15
75681;BME280;64294;49.176;16.626;2023-08-17T08:15:08;99621.63;;;26.71;66.98
75681;BME280;64294;49.176;16.626;2023-08-17T08:17:33;99622.34;;;26.14;68.84
75681;BME280;64294;49.176;16.626;2023-08-17T08:19:58;99617.66;;;26.35;68.30
75681;BME280;64294;49.176;16.626;2023-08-17T08:22:24;99622.47;;;26.73;69.99
75681;BME280;64294;49.176;16.626;2023-08-17T08:24:50;99625.53;;;26.77;66.89
75681;BME280;64294;49.176;16.626;2023-08-17T08:27:16;99619.75;;;27.21;64.87
75681;BME280;64294;49.176;16.626;2023-08-17T08:29:41;99628.41;;;27.21;64.92
75681;BME280;64294;49.176;16.626;2023-08-17T08:32:06;99616.91;;;27.36;65.50
75681;BME280;64294;49.176;16.626;2023-08-17T08:34:32;99615.31;;;27.49;63.92
75681;BME280;64294;49.176;16.626;2023-08-17T08:36:57;99615.81;;;27.75;61.38
75681;BME280;64294;49.176;16.626;2023-08-17T08:39:27;99614.88;;;27.70;62.87
75681;BME280;64294;49.176;16.626;2023-08-17T08:41:53;99612.41;;;27.49;63.17
75681;BME280;64294;49.176;16.626;2023-08-17T08:44:19;99616.94;;;27.68;63.45
75681;BME280;64294;49.176;16.626;2023-08-17T08:46:48;99619.16;;;27.85;62.35
75681;BME280;64294;49.176;16.626;2023-08-17T08:49:19;99619.16;;;27.85;61.25
75681;BME280;64294;49.176;16.626;2023-08-17T08:51:49;99614.09;;;28.01;60.81
75681;BME280;64294;49.176;16.626;2023-08-17T08:54:20;99612.44;;;27.96;59.23
75681;BME280;64294;49.176;16.626;2023-08-17T08:56:51;99613.56;;;27.89;61.54
75681;BME280;64294;49.176;16.626;2023-08-17T08:59:20;99611.13;;;27.99;59.79
75681;BME280;64294;49.176;16.626;2023-08-17T09:01:45;99605.09;;;27.93;60.86
75681;BME280;64294;49.176;16.626;2023-08-17T09:04:11;99602.88;;;28.25;58.27
75681;BME280;64294;49.176;16.626;2023-08-17T09:06:38;99602.53;;;28.17;60.28
75681;BME280;64294;49.176;16.626;2023-08-17T09:09:05;99601.97;;;28.54;59.15
75681;BME280;64294;49.176;16.626;2023-08-17T09:11:33;99604.22;;;29.09;57.72
75681;BME280;64294;49.176;16.626;2023-08-17T09:13:59;99604.50;;;29.53;55.39
75681;BME280;64294;49.176;16.626;2023-08-17T09:16:28;99608.88;;;29.36;55.37
75681;BME280;64294;49.176;16.626;2023-08-17T09:18:53;99609.97;;;29.45;55.12
75681;BME280;64294;49.176;16.626;2023-08-17T09:21:23;99604.81;;;29.61;55.15
75681;BME280;64294;49.176;16.626;2023-08-17T09:23:56;99598.56;;;29.89;54.17
75681;BME280;64294;49.176;16.626;2023-08-17T09:26:22;99599.09;;;30.64;50.70
75681;BME280;64294;49.176;16.626;2023-08-17T09:28:51;99601.31;;;29.27;53.28
75681;BME280;64294;49.176;16.626;2023-08-17T09:31:20;99595.53;;;29.27;52.09
75681;BME280;64294;49.176;16.626;2023-08-17T09:33:49;99598.38;;;29.82;51.81
75681;BME280;64294;49.176;16.626;2023-08-17T09:36:15;99587.59;;;29.85;50.45
75681;BME280;64294;49.176;16.626;2023-08-17T09:38:41;99588.44;;;30.29;49.67
75681;BME280;64294;49.176;16.626;2023-08-17T09:41:06;99583.56;;;30.34;50.45
75681;BME280;64294;49.176;16.626;2023-08-17T09:43:32;99581.72;;;30.44;51.70
75681;BME280;64294;49.176;16.626;2023-08-17T09:45:59;99582.16;;;30.57;48.90
75681;BME280;64294;49.176;16.626;2023-08-17T09:48:27;99571.38;;;31.05;50.43
75681;BME280;64294;49.176;16.626;2023-08-17T09:50:55;99570.84;;;30.23;49.15
75681;BME280;64294;49.176;16.626;2023-08-17T09:53:21;99572.22;;;31.55;47.42
75681;BME280;64294;49.176;16.626;2023-08-17T09:55:47;99566.31;;;31.77;45.84
75681;BME280;64294;49.176;16.626;2023-08-17T09:58:13;99559.41;;;31.64;46.34
75681;BME280;64294;49.176;16.626;2023-08-17T10:00:46;99563.38;;;32.01;45.90
75681;BME280;64294;49.176;16.626;2023-08-17T10:03:14;99564.44;;;31.88;46.10
75681;BME280;64294;49.176;16.626;2023-08-17T10:05:40;99568.59;;;31.31;48.08
75681;BME280;64294;49.176;16.626;2023-08-17T10:08:07;99559.88;;;30.85;49.06
75681;BME280;64294;49.176;16.626;2023-08-17T10:10:42;99562.34;;;30.71;48.56
75681;BME280;64294;49.176;16.626;2023-08-17T10:15:37;99556.66;;;29.92;50.25
75681;BME280;64294;49.176;16.626;2023-08-17T10:18:20;99560.78;;;29.65;52.25
75681;BME280;64294;49.176;16.626;2023-08-17T10:21:00;99559.50;;;29.50;52.94
75681;BME280;64294;49.176;16.626;2023-08-17T10:23:27;99547.78;;;29.85;51.97
75681;BME280;64294;49.176;16.626;2023-08-17T10:25:53;99548.44;;;29.84;51.28
75681;BME280;64294;49.176;16.626;2023-08-17T10:28:21;99558.88;;;30.33;49.21
75681;BME280;64294;49.176;16.626;2023-08-17T10:30:47;99556.78;;;30.35;49.43
75681;BME280;64294;49.176;16.626;2023-08-17T10:33:14;99545.63;;;30.69;50.06
75681;BME280;64294;49.176;16.626;2023-08-17T10:35:41;99549.00;;;30.86;50.01
75681;BME280;64294;49.176;16.626;2023-08-17T10:38:07;99552.34;;;31.22;48.84
75681;BME280;64294;49.176;16.626;2023-08-17T10:40:39;99553.13;;;31.48;47.50
75681;BME280;64294;49.176;16.626;2023-08-17T10:43:05;99546.88;;;32.36;44.33
75681;BME280;64294;49.176;16.626;2023-08-17T10:45:34;99550.06;;;32.48;44.11
75681;BME280;64294;49.176;16.626;2023-08-17T10:50:33;99543.75;;;33.86;40.63
75681;BME280;64294;49.176;16.626;2023-08-17T10:53:04;99540.31;;;33.97;40.06
75681;BME280;64294;49.176;16.626;2023-08-17T10:55:40;99530.16;;;34.00;40.11
75681;BME280;64294;49.176;16.626;2023-08-17T10:58:07;99532.69;;;33.12;42.73
75681;BME280;64294;49.176;16.626;2023-08-17T11:00:38;99529.34;;;33.96;40.01
75681;BME280;64294;49.176;16.626;2023-08-17T11:03:05;99525.84;;;34.44;39.50
75681;BME280;64294;49.176;16.626;2023-08-17T11:07:59;99529.59;;;34.50;40.30
75681;BME280;64294;49.176;16.626;2023-08-17T11:12:53;99530.69;;;34.31;39.13
75681;BME280;64294;49.176;16.626;2023-08-17T11:15:24;99525.50;;;34.68;40.54
75681;BME280;64294;49.176;16.626;2023-08-17T11:17:50;99527.59;;;34.21;40.13
75681;BME280;64294;49.176;16.626;2023-08-17T11:20:15;99520.66;;;34.84;38.41
75681;BME280;64294;49.176;16.626;2023-08-17T11:22:41;99522.81;;;34.82;38.68
75681;BME280;64294;49.176;16.626;2023-08-17T11:25:06;99519.56;;;34.19;39.00
75681;BME280;64294;49.176;16.626;2023-08-17T11:27:33;99515.78;;;34.99;39.15
75681;BME280;64294;49.176;16.626;2023-08-17T11:29:58;99515.09;;;37.25;36.73
75681;BME280;64294;49.176;16.626;2023-08-17T11:32:24;99507.69;;;37.12;34.04
75681;BME280;64294;49.176;16.626;2023-08-17T11:34:50;99501.47;;;38.62;31.42
75681;BME280;64294;49.176;16.626;2023-08-17T11:37:16;99505.00;;;37.58;32.42
75681;BME280;64294;49.176;16.626;2023-08-17T11:39:41;99507.66;;;37.06;34.24
75681;BME280;64294;49.176;16.626;2023-08-17T11:42:07;99505.47;;;37.04;34.55
75681;BME280;64294;49.176;16.626;2023-08-17T11:44:33;99506.31;;;37.27;34.70
75681;BME280;64294;49.176;16.626;2023-08-17T11:46:58;99505.59;;;36.27;35.33
75681;BME280;64294;49.176;16.626;2023-08-17T11:49:24;99493.53;;;35.30;36.78
75681;BME280;64294;49.176;16.626;2023-08-17T11:51:51;99500.28;;;36.96;35.30
75681;BME280;64294;49.176;16.626;2023-08-17T11:54:16;99499.16;;;37.73;34.10
75681;BME280;64294;49.176;16.626;2023-08-17T11:56:42;99500.56;;;37.55;33.49
75681;BME280;64294;49.176;16.626;2023-08-17T11:59:08;99491.47;;;36.92;33.19
75681;BME280;64294;49.176;16.626;2023-08-17T12:01:36;99489.00;;;38.65;31.70
75681;BME280;64294;49.176;16.626;2023-08-17T12:04:04;99482.59;;;40.04;29.17
75681;BME280;64294;49.176;16.626;2023-08-17T12:06:31;99472.56;;;39.58;29.56
75681;BME280;64294;49.176;16.626;2023-08-17T12:08:56;99473.38;;;39.34;29.71
75681;BME280;64294;49.176;16.626;2023-08-17T12:11:24;99463.16;;;39.21;30.28
75681;BME280;64294;49.176;16.626;2023-08-17T12:13:51;99465.38;;;39.18;29.80
75681;BME280;64294;49.176;16.626;2023-08-17T12:16:20;99464.03;;;38.60;31.10
75681;BME280;64294;49.176;16.626;2023-08-17T12:18:52;99457.28;;;39.19;30.05
75681;BME280;64294;49.176;16.626;2023-08-17T12:21:21;99454.91;;;39.56;29.83
75681;BME280;64294;49.176;16.626;2023-08-17T12:23:47;99443.94;;;39.40;29.88
75681;BME280;64294;49.176;16.626;2023-08-17T12:26:20;99433.13;;;38.90;30.17
75681;BME280;64294;49.176;16.626;2023-08-17T12:28:45;99433.03;;;39.18;30.91
75681;BME280;64294;49.176;16.626;2023-08-17T12:31:11;99429.94;;;39.55;29.63
75681;BME280;64294;49.176;16.626;2023-08-17T12:33:36;99421.09;;;39.51;30.64
75681;BME280;64294;49.176;16.626;2023-08-17T12:36:02;99419.00;;;40.37;29.07
75681;BME280;64294;49.176;16.626;2023-08-17T12:38:27;99421.41;;;38.82;31.11
75681;BME280;64294;49.176;16.626;2023-08-17T12:40:53;99420.00;;;38.17;32.14
75681;BME280;64294;49.176;16.626;2023-08-17T12:43:19;99404.59;;;37.74;32.29
75681;BME280;64294;49.176;16.626;2023-08-17T12:45:44;99411.03;;;37.20;32.98
75681;BME280;64294;49.176;16.626;2023-08-17T12:48:10;99404.75;;;36.43;36.10
75681;BME280;64294;49.176;16.626;2023-08-17T12:50:35;99408.84;;;36.07;35.66
75681;BME280;64294;49.176;16.626;2023-08-17T12:53:01;99408.19;;;36.10;35.92